Time;durP1;ratioP1;P1;durP2;ratioP2;P2;SDS_P1;SDS_P2;PMS_P1;PMS_P2;Temp;Humidity;BMP_temperature;BMP_pressure;BME280_temperature;BME280_humidity;BME280_pressure;Samples;Min_cycle;Max_cycle;Signal;HPM_P1;HPM_P2
2021/08/19 00:01:40;;;;;;;20.98;8.65;;;;;;;25.62;54.67;99311.47;5112157;28;20447;-73
2021/08/19 00:04:06;;;;;;;20.90;8.77;;;;;;;25.14;55.59;99250.97;5111981;28;20015;-76
2021/08/19 00:06:32;;;;;;;15.13;8.07;;;;;;;24.71;56.38;99222.84;5111897;28;20011;-76
2021/08/19 00:08:57;;;;;;;19.70;10.43;;;;;;;25.14;58.05;99305.00;5111840;28;20023;-77
2021/08/19 00:11:22;;;;;;;13.63;8.60;;;;;;;24.82;58.04;99262.22;5111684;28;20028;-77
2021/08/19 00:13:48;;;;;;;12.68;8.25;;;;;;;25.02;57.58;99293.72;5111714;28;20019;-77
2021/08/19 00:16:13;;;;;;;16.75;8.43;;;;;;;25.02;58.24;99280.22;5111692;28;20016;-75
2021/08/19 00:18:39;;;;;;;15.05;8.80;;;;;;;24.79;58.05;99224.97;5111921;28;20020;-76
2021/08/19 00:21:05;;;;;;;15.43;7.40;;;;;;;24.91;59.02;99268.63;5111724;28;20058;-75
2021/08/19 00:23:32;;;;;;;13.50;7.72;;;;;;;24.75;58.93;99245.50;5111748;28;20027;-75
2021/08/19 00:25:57;;;;;;;11.48;6.75;;;;;;;24.84;58.48;99261.94;5110187;28;20062;-75
2021/08/19 00:28:23;;;;;;;10.60;6.97;;;;;;;24.91;58.36;99287.53;5111612;28;20488;-75
2021/08/19 00:30:48;;;;;;;8.10;6.35;;;;;;;24.81;58.89;99287.59;5111836;28;20051;-74
2021/08/19 00:33:14;;;;;;;8.52;5.85;;;;;;;24.61;59.10;99255.28;5111739;28;20031;-75
2021/08/19 00:35:40;;;;;;;8.88;5.60;;;;;;;24.82;59.07;99288.41;5111627;28;20062;-75
2021/08/19 00:38:05;;;;;;;8.95;5.60;;;;;;;24.89;58.97;99294.31;5111282;28;20472;-75
2021/08/19 00:40:31;;;;;;;7.72;5.30;;;;;;;24.52;58.65;99229.94;5111399;28;20024;-75
2021/08/19 00:43:06;;;;;;;7.90;5.40;;;;;;;24.85;58.79;99285.16;5111345;28;20027;-75
2021/08/19 00:45:34;;;;;;;9.48;5.10;;;;;;;24.49;58.93;99233.19;5110065;28;20022;-74
2021/08/19 00:47:59;;;;;;;8.05;5.07;;;;;;;24.69;59.31;99285.22;5111524;28;20372;-75
2021/08/19 00:50:26;;;;;;;6.95;5.00;;;;;;;24.69;59.36;99301.41;5111215;28;20034;-75
2021/08/19 00:52:52;;;;;;;7.10;5.38;;;;;;;24.57;59.65;99309.03;5111346;28;20510;-75
2021/08/19 00:55:17;;;;;;;6.68;5.32;;;;;;;24.19;59.69;99271.84;5111407;28;20043;-75
2021/08/19 00:57:45;;;;;;;6.95;4.85;;;;;;;24.41;59.91;99307.44;5110030;28;20503;-75
2021/08/19 01:00:13;;;;;;;6.55;4.68;;;;;;;24.28;60.38;99319.59;5111576;28;20031;-75
2021/08/19 01:02:42;;;;;;;6.90;3.95;;;;;;;24.26;60.23;99318.22;5111210;28;20100;-75
2021/08/19 01:05:08;;;;;;;5.22;3.85;;;;;;;24.07;59.80;99281.03;5111310;28;20110;-75
2021/08/19 01:07:34;;;;;;;5.55;3.45;;;;;;;24.31;59.81;99304.75;5111408;28;20020;-75
2021/08/19 01:10:00;;;;;;;4.75;3.50;;;;;;;24.06;59.94;99265.94;5111278;28;20111;-76
2021/08/19 01:12:26;;;;;;;5.07;3.17;;;;;;;24.16;59.71;99288.56;5111287;28;20031;-75
2021/08/19 01:14:51;;;;;;;5.47;3.33;;;;;;;24.13;60.71;99297.22;5111261;28;20024;-74
2021/08/19 01:17:18;;;;;;;5.82;3.33;;;;;;;24.15;60.31;99290.47;5092839;28;20020;-74
2021/08/19 01:19:49;;;;;;;3.15;2.85;;;;;;;24.24;60.11;99304.19;5111182;28;20016;-74
2021/08/19 01:22:16;;;;;;;3.30;2.90;;;;;;;24.11;60.56;99278.59;5111228;28;20027;-75
2021/08/19 01:24:42;;;;;;;5.50;3.30;;;;;;;23.84;59.86;99230.38;5111101;28;20019;-75
2021/08/19 01:27:13;;;;;;;4.75;2.90;;;;;;;24.34;60.01;99304.22;5110885;28;20062;-74
2021/08/19 01:29:42;;;;;;;4.50;2.90;;;;;;;24.21;59.95;99288.56;5114000;28;20500;-75
2021/08/19 01:32:08;;;;;;;4.38;2.83;;;;;;;24.32;59.77;99290.19;5114742;28;20037;-75
2021/08/19 01:34:34;;;;;;;4.22;3.10;;;;;;;24.34;59.86;99288.81;5114855;28;20531;-75
2021/08/19 01:36:59;;;;;;;4.10;3.45;;;;;;;24.38;59.87;99294.47;5114705;28;20130;-75
2021/08/19 01:39:26;;;;;;;3.72;3.13;;;;;;;24.34;59.65;99288.81;5114830;28;20047;-75
2021/08/19 01:41:51;;;;;;;4.32;3.60;;;;;;;24.19;59.83;99259.16;5114690;28;20416;-75
2021/08/19 01:44:18;;;;;;;4.75;3.42;;;;;;;24.26;60.04;99280.47;5114598;28;20053;-76
2021/08/19 01:46:43;;;;;;;4.70;3.50;;;;;;;24.20;60.49;99281.56;5114803;28;20033;-76
2021/08/19 01:49:09;;;;;;;5.45;3.70;;;;;;;23.87;60.40;99237.13;5114738;28;20498;-76
2021/08/19 01:51:34;;;;;;;5.00;3.65;;;;;;;24.20;60.30;99270.75;5114368;28;20035;-75
2021/08/19 01:54:01;;;;;;;4.38;3.65;;;;;;;24.09;60.55;99267.28;5114306;28;20034;-76
2021/08/19 01:56:27;;;;;;;4.53;4.00;;;;;;;24.19;60.89;99285.34;5114419;28;20023;-75
2021/08/19 01:58:54;;;;;;;5.10;4.60;;;;;;;23.87;60.77;99234.44;5114377;28;20165;-76
2021/08/19 02:01:26;;;;;;;7.13;4.20;;;;;;;24.24;61.02;99282.63;5114243;28;20027;-76
2021/08/19 02:03:53;;;;;;;5.30;4.43;;;;;;;24.09;60.57;99248.41;5095930;28;20112;-75
2021/08/19 02:06:19;;;;;;;6.65;4.90;;;;;;;24.31;60.52;99281.28;5113145;28;20464;-75
2021/08/19 02:08:45;;;;;;;4.97;4.57;;;;;;;24.08;60.49;99246.78;5114471;28;20030;-76
2021/08/19 02:11:11;;;;;;;5.70;4.93;;;;;;;24.26;60.63;99270.47;5114333;28;20023;-75
2021/08/19 02:13:37;;;;;;;7.03;5.32;;;;;;;24.23;60.58;99271.03;5112854;28;20424;-76
2021/08/19 02:16:02;;;;;;;6.85;5.35;;;;;;;24.24;60.70;99271.84;5113999;28;20034;-75
2021/08/19 02:18:28;;;;;;;8.55;6.18;;;;;;;24.26;60.47;99272.38;5095720;28;20028;-76
2021/08/19 02:20:53;;;;;;;7.15;6.38;;;;;;;24.17;60.77;99269.41;5114230;28;20028;-76
2021/08/19 02:23:19;;;;;;;7.28;6.57;;;;;;;24.02;61.20;99262.16;5114164;28;20545;-76
2021/08/19 02:25:44;;;;;;;9.82;6.68;;;;;;;23.95;61.20;99261.66;5112562;28;20066;-75
2021/08/19 02:28:11;;;;;;;6.45;5.63;;;;;;;23.83;61.68;99246.84;5113941;28;20500;-75
2021/08/19 02:30:36;;;;;;;7.57;6.03;;;;;;;23.61;61.53;99198.59;5113777;28;20496;-76
2021/08/19 02:33:03;;;;;;;7.45;6.03;;;;;;;23.61;61.85;99209.38;5113811;28;20166;-75
2021/08/19 02:35:30;;;;;;;6.97;5.10;;;;;;;24.00;61.75;99256.25;5113765;28;20110;-76
2021/08/19 02:37:57;;;;;;;6.93;5.70;;;;;;;23.91;61.60;99230.91;5113600;28;20038;-75
2021/08/19 02:40:23;;;;;;;7.97;5.57;;;;;;;24.08;61.38;99250.28;5112427;28;20023;-76
2021/08/19 02:42:50;;;;;;;8.43;5.45;;;;;;;23.97;61.35;99229.81;5113728;28;20020;-76
2021/08/19 02:45:16;;;;;;;7.25;5.55;;;;;;;23.95;61.56;99231.97;5113615;28;20408;-76
2021/08/19 02:47:41;;;;;;;6.13;5.25;;;;;;;23.92;61.49;99223.63;5113633;28;20027;-75
2021/08/19 02:50:07;;;;;;;6.75;5.90;;;;;;;23.54;61.15;99174.56;5113556;28;20027;-75
2021/08/19 02:52:33;;;;;;;7.32;5.68;;;;;;;24.00;61.24;99237.38;5113363;28;20031;-75
2021/08/19 02:54:58;;;;;;;7.03;5.93;;;;;;;24.11;61.09;99267.00;5113282;28;20019;-75
2021/08/19 02:57:24;;;;;;;7.32;5.43;;;;;;;24.02;61.05;99248.69;5113437;28;20106;-76
2021/08/19 02:59:49;;;;;;;7.00;5.88;;;;;;;23.81;61.01;99209.34;5113402;28;20041;-75
2021/08/19 03:02:14;;;;;;;7.57;5.70;;;;;;;23.62;60.86;99194.81;5112925;28;20045;-76
2021/08/19 03:04:40;;;;;;;6.75;5.10;;;;;;;23.89;61.10;99253.84;5113002;28;20028;-75
2021/08/19 03:07:09;;;;;;;6.25;5.07;;;;;;;24.03;60.39;99263.78;5113244;28;20019;-76
2021/08/19 03:09:34;;;;;;;5.93;5.35;;;;;;;23.80;60.25;99232.00;5113262;28;20068;-76
2021/08/19 03:11:59;;;;;;;8.70;5.68;;;;;;;23.75;59.81;99227.41;5112824;28;20019;-75
2021/08/19 03:14:25;;;;;;;6.85;5.13;;;;;;;23.94;59.87;99251.94;5112751;28;20080;-74
2021/08/19 03:16:50;;;;;;;7.97;5.55;;;;;;;24.13;59.26;99270.25;5112926;28;20023;-75
2021/08/19 03:19:16;;;;;;;7.55;5.63;;;;;;;24.01;59.03;99257.06;5112875;28;20020;-75
2021/08/19 03:21:41;;;;;;;7.80;5.25;;;;;;;23.76;58.02;99228.22;5113014;28;20484;-76
2021/08/19 03:24:06;;;;;;;7.03;5.70;;;;;;;23.67;57.76;99230.66;5113162;28;20043;-75
2021/08/19 03:26:32;;;;;;;7.30;5.15;;;;;;;23.89;57.48;99278.09;5112578;28;20494;-76
2021/08/19 03:28:58;;;;;;;8.13;5.55;;;;;;;23.60;57.64;99258.97;5112654;28;20023;-75
2021/08/19 03:31:27;;;;;;;6.85;5.65;;;;;;;23.71;57.03;99279.44;5112807;28;20502;-76
2021/08/19 03:33:53;;;;;;;9.32;6.10;;;;;;;23.45;56.70;99236.28;5112625;28;20081;-76
2021/08/19 03:36:19;;;;;;;8.88;5.82;;;;;;;23.39;56.80;99241.94;5112536;28;20032;-76
2021/08/19 03:38:44;;;;;;;6.70;5.60;;;;;;;23.71;56.45;99290.22;5112350;28;20035;-75
2021/08/19 03:41:11;;;;;;;7.03;5.68;;;;;;;23.33;56.23;99235.75;5112435;28;20020;-75
2021/08/19 03:43:37;;;;;;;8.25;6.03;;;;;;;23.37;56.04;99253.00;5112292;28;20488;-76
2021/08/19 03:46:03;;;;;;;6.30;5.40;;;;;;;23.51;56.18;99263.25;5094168;28;20027;-76
2021/08/19 03:48:28;;;;;;;9.43;6.05;;;;;;;23.65;56.01;99285.91;5112321;28;20020;-75
2021/08/19 03:50:54;;;;;;;6.85;5.72;;;;;;;23.62;55.71;99289.13;5111897;28;20020;-76
2021/08/19 03:53:19;;;;;;;7.78;6.45;;;;;;;23.58;55.78;99291.56;5112239;28;20560;-76
2021/08/19 03:55:45;;;;;;;9.48;6.13;;;;;;;23.14;55.25;99222.00;5093726;28;20496;-77
2021/08/19 03:58:10;;;;;;;8.63;5.95;;;;;;;23.41;55.24;99272.13;5093629;28;20026;-75
2021/08/19 04:00:36;;;;;;;8.88;6.50;;;;;;;23.11;55.47;99248.66;5111819;28;20023;-76
2021/08/19 04:03:01;;;;;;;7.70;6.53;;;;;;;22.60;55.66;99159.66;5111878;28;20511;-76
2021/08/19 04:05:26;;;;;;;7.38;5.93;;;;;;;23.31;55.29;99269.41;5111889;28;20019;-75
2021/08/19 04:07:52;;;;;;;7.43;5.93;;;;;;;23.48;55.33;99291.53;5112066;28;20023;-76
2021/08/19 04:10:18;;;;;;;5.93;5.30;;;;;;;23.48;54.74;99283.44;5111997;28;20031;-76
2021/08/19 04:12:44;;;;;;;8.70;5.72;;;;;;;23.11;54.77;99244.09;5111837;28;20020;-75
2021/08/19 04:15:10;;;;;;;8.13;6.07;;;;;;;23.56;54.63;99309.09;5111960;28;20026;-75
2021/08/19 04:17:37;;;;;;;9.88;6.35;;;;;;;23.55;54.52;99302.88;5110529;28;20416;-75
2021/08/19 04:20:03;;;;;;;9.27;5.82;;;;;;;23.60;54.08;99299.38;5110483;28;20020;-75
2021/08/19 04:22:29;;;;;;;9.43;5.68;;;;;;;23.59;54.30;99297.75;5111844;28;20027;-76
2021/08/19 04:24:54;;;;;;;7.88;5.03;;;;;;;23.26;54.05;99255.94;5111484;28;20538;-76
2021/08/19 04:27:20;;;;;;;7.65;5.38;;;;;;;23.18;53.99;99246.50;5093493;28;20023;-75
2021/08/19 04:29:46;;;;;;;6.80;5.50;;;;;;;23.52;54.05;99303.38;5111826;28;20102;-76
2021/08/19 04:32:11;;;;;;;8.05;5.82;;;;;;;23.40;53.82;99282.09;5111589;28;20053;-74
2021/08/19 04:34:36;;;;;;;9.02;5.30;;;;;;;23.51;53.85;99303.66;5111800;28;20027;-75
2021/08/19 04:37:02;;;;;;;7.75;5.25;;;;;;;23.43;53.71;99295.03;5111275;28;20027;-76
2021/08/19 04:39:27;;;;;;;6.38;5.35;;;;;;;23.43;54.12;99297.72;5111400;28;20027;-76
2021/08/19 04:41:53;;;;;;;7.53;5.30;;;;;;;23.24;53.92;99269.69;5111308;28;20412;-75
2021/08/19 04:44:18;;;;;;;6.72;4.85;;;;;;;23.02;53.62;99242.16;5111336;28;20019;-75
2021/08/19 04:46:44;;;;;;;7.55;4.82;;;;;;;23.39;53.63;99315.50;5111438;28;20035;-76
2021/08/19 04:49:09;;;;;;;7.63;5.22;;;;;;;23.28;54.03;99297.72;5111559;28;20016;-75
2021/08/19 04:51:36;;;;;;;6.25;4.60;;;;;;;23.43;53.48;99313.88;5093224;28;20489;-75
2021/08/19 04:54:05;;;;;;;6.28;4.65;;;;;;;23.52;53.21;99316.88;5111659;28;20031;-75
2021/08/19 04:56:36;;;;;;;6.97;4.97;;;;;;;23.09;53.31;99256.19;5110927;28;20035;-74
2021/08/19 04:59:06;;;;;;;8.23;5.47;;;;;;;23.61;53.29;99327.94;5111080;28;20450;-76
2021/08/19 05:01:32;;;;;;;6.90;4.78;;;;;;;23.53;53.23;99320.38;5111180;28;20034;-75
2021/08/19 05:04:01;;;;;;;7.90;4.95;;;;;;;23.61;52.71;99326.06;5113189;28;20031;-76
2021/08/19 05:06:27;;;;;;;8.43;4.38;;;;;;;23.17;52.68;99269.13;5114242;28;20016;-75
2021/08/19 05:08:54;;;;;;;6.78;4.65;;;;;;;23.56;52.20;99341.44;5115326;28;20020;-75
2021/08/19 05:11:20;;;;;;;9.00;5.10;;;;;;;23.61;52.12;99354.91;5115337;28;20027;-75
2021/08/19 05:13:46;;;;;;;7.18;4.80;;;;;;;23.63;52.24;99355.44;5115199;28;20568;-76
2021/08/19 05:16:11;;;;;;;8.35;4.68;;;;;;;23.67;52.00;99359.22;5115126;28;20114;-75
2021/08/19 05:18:38;;;;;;;8.75;4.85;;;;;;;23.25;51.82;99303.63;5096886;28;20031;-74
2021/08/19 05:21:04;;;;;;;4.82;3.90;;;;;;;23.60;51.38;99364.88;5115016;28;20027;-75
2021/08/19 05:23:29;;;;;;;7.93;3.88;;;;;;;23.63;51.11;99358.13;5115047;28;20020;-76
2021/08/19 05:25:55;;;;;;;6.85;4.70;;;;;;;23.63;51.17;99367.03;5114729;28;20030;-76
2021/08/19 05:28:20;;;;;;;7.60;5.38;;;;;;;23.66;51.26;99366.50;5114994;28;20019;-76
2021/08/19 05:30:45;;;;;;;6.95;5.22;;;;;;;23.55;50.70;99346.00;5114891;28;20020;-74
2021/08/19 05:33:11;;;;;;;8.95;4.82;;;;;;;23.49;50.74;99341.66;5114793;28;20515;-76
2021/08/19 05:35:36;;;;;;;7.53;4.65;;;;;;;23.58;50.92;99364.34;5114737;28;20111;-75
2021/08/19 05:38:02;;;;;;;9.73;4.93;;;;;;;23.38;51.21;99327.34;5114775;28;20102;-76
2021/08/19 05:40:28;;;;;;;9.05;4.68;;;;;;;23.43;51.39;99338.16;5114831;28;20012;-76
2021/08/19 05:42:53;;;;;;;8.23;4.93;;;;;;;23.69;51.36;99365.16;5096451;28;20031;-76
2021/08/19 05:45:19;;;;;;;9.55;5.13;;;;;;;23.00;51.64;99282.00;5114837;28;20016;-75
2021/08/19 05:47:44;;;;;;;11.82;5.35;;;;;;;23.20;51.78;99309.00;5113143;28;20446;-75
2021/08/19 05:50:10;;;;;;;10.32;5.85;;;;;;;23.28;51.56;99319.25;5094095;28;20120;-76
2021/08/19 05:52:37;;;;;;;9.13;5.45;;;;;;;23.25;51.94;99327.06;5112502;28;20115;-75
2021/08/19 05:55:04;;;;;;;6.28;5.25;;;;;;;23.32;52.41;99341.91;5107234;28;20026;-75
2021/08/19 05:57:29;;;;;;;11.07;5.90;;;;;;;23.57;52.07;99378.06;5094139;28;20101;-76
2021/08/19 05:59:54;;;;;;;8.77;5.80;;;;;;;23.66;52.04;99371.09;5108175;28;20462;-75
2021/08/19 06:02:20;;;;;;;10.25;6.38;;;;;;;23.23;51.95;99307.66;5114132;28;20027;-75
2021/08/19 06:04:45;;;;;;;10.73;7.00;;;;;;;23.62;52.16;99367.31;5115445;27;20043;-75
2021/08/19 06:07:10;;;;;;;9.25;5.50;;;;;;;23.81;51.90;99384.59;5114358;28;20523;-75
2021/08/19 06:09:37;;;;;;;12.88;5.15;;;;;;;23.87;51.00;99388.13;5114264;28;20081;-75
2021/08/19 06:12:03;;;;;;;7.88;5.03;;;;;;;23.89;50.99;99386.78;5100803;28;20486;-75
2021/08/19 06:14:28;;;;;;;7.68;5.38;;;;;;;23.61;50.97;99325.25;5093694;28;20019;-76
2021/08/19 06:16:54;;;;;;;9.68;6.50;;;;;;;23.82;50.93;99366.53;5093759;28;20096;-76
2021/08/19 06:19:19;;;;;;;8.10;4.72;;;;;;;23.74;50.36;99336.31;5093471;28;20067;-76
2021/08/19 06:21:45;;;;;;;6.13;4.32;;;;;;;23.70;50.14;99331.72;5093453;28;20016;-75
2021/08/19 06:24:11;;;;;;;8.27;4.30;;;;;;;24.16;50.01;99391.91;5075593;28;20020;-76
2021/08/19 06:26:36;;;;;;;6.72;4.22;;;;;;;24.26;49.78;99393.78;5093350;28;20028;-75
2021/08/19 06:29:01;;;;;;;11.68;5.15;;;;;;;23.95;49.78;99331.75;5075201;28;20130;-76
2021/08/19 06:31:27;;;;;;;7.88;5.30;;;;;;;24.11;49.29;99347.94;5093607;28;20023;-76
2021/08/19 06:33:53;;;;;;;8.88;4.80;;;;;;;24.19;49.20;99393.25;5093582;28;20023;-76
2021/08/19 06:36:18;;;;;;;9.20;4.38;;;;;;;24.29;49.24;99393.25;5093264;28;20027;-75
2021/08/19 06:38:43;;;;;;;7.65;4.07;;;;;;;24.09;48.75;99359.81;5093367;28;20020;-75
2021/08/19 06:41:09;;;;;;;8.85;4.43;;;;;;;24.14;49.03;99342.81;5093495;28;20022;-76
2021/08/19 06:43:34;;;;;;;9.70;4.75;;;;;;;24.50;49.14;99394.84;5093180;28;20506;-76
2021/08/19 06:46:00;;;;;;;8.90;6.00;;;;;;;24.40;48.95;99376.78;5093397;28;20069;-76
2021/08/19 06:48:25;;;;;;;9.20;5.43;;;;;;;24.30;48.78;99354.41;5105384;28;20030;-76
2021/08/19 06:50:51;;;;;;;7.90;5.32;;;;;;;24.56;48.52;99390.28;5113415;28;20080;-76
2021/08/19 06:53:16;;;;;;;9.80;4.97;;;;;;;24.51;49.05;99395.66;5113689;28;20020;-76
2021/08/19 06:55:41;;;;;;;6.97;5.63;;;;;;;24.48;48.95;99402.41;5095068;28;20562;-75
2021/08/19 06:58:07;;;;;;;12.40;5.93;;;;;;;24.17;48.70;99336.06;5094981;28;20020;-75
2021/08/19 07:00:33;;;;;;;12.32;6.13;;;;;;;24.66;48.29;99391.06;5113197;28;20096;-75
2021/08/19 07:02:58;;;;;;;10.18;5.50;;;;;;;24.42;48.11;99344.13;5110247;28;20026;-75
2021/08/19 07:05:24;;;;;;;7.32;5.28;;;;;;;24.64;47.91;99363.53;5111352;28;20035;-75
2021/08/19 07:07:50;;;;;;;6.80;5.32;;;;;;;24.92;47.88;99404.50;5081335;27;20027;-76
2021/08/19 07:10:16;;;;;;;8.55;4.97;;;;;;;24.88;47.59;99406.13;5093362;28;20424;-76
2021/08/19 07:12:41;;;;;;;10.60;6.18;;;;;;;24.68;47.22;99378.09;5089135;28;20019;-74
2021/08/19 07:15:07;;;;;;;8.20;5.68;;;;;;;24.84;47.32;99405.06;5108279;28;20027;-76
2021/08/19 07:17:33;;;;;;;9.15;5.38;;;;;;;24.84;47.51;99410.47;5109916;28;20070;-75
2021/08/19 07:20:00;;;;;;;19.88;6.68;;;;;;;24.89;47.80;99413.94;5110428;27;20114;-76
2021/08/19 07:22:26;;;;;;;10.82;5.80;;;;;;;24.71;47.41;99368.66;5097371;28;20551;-75
2021/08/19 07:24:51;;;;;;;9.05;4.40;;;;;;;24.76;47.25;99365.94;5092919;28;20110;-75
2021/08/19 07:27:17;;;;;;;6.90;5.30;;;;;;;25.01;46.71;99386.66;5091642;28;20019;-76
2021/08/19 07:29:43;;;;;;;7.57;4.70;;;;;;;24.90;46.64;99368.84;5109871;28;20030;-76
2021/08/19 07:32:10;;;;;;;7.20;4.53;;;;;;;25.07;46.21;99379.34;5110639;28;20019;-75
2021/08/19 07:34:35;;;;;;;7.97;5.15;;;;;;;25.38;45.88;99409.75;5110097;28;20023;-75
2021/08/19 07:37:01;;;;;;;10.88;5.50;;;;;;;25.47;45.77;99406.19;5109396;28;20030;-76
2021/08/19 07:39:26;;;;;;;8.38;5.20;;;;;;;25.58;45.38;99405.03;5111872;28;20503;-76
2021/08/19 07:41:52;;;;;;;10.25;5.00;;;;;;;25.58;45.79;99405.03;5112358;28;20096;-75
2021/08/19 07:44:17;;;;;;;8.88;5.78;;;;;;;25.24;45.48;99345.47;5112149;28;20452;-75
2021/08/19 07:46:42;;;;;;;8.18;5.78;;;;;;;25.66;45.32;99403.66;5093652;28;20031;-75
2021/08/19 07:49:08;;;;;;;9.07;6.60;;;;;;;25.69;45.08;99413.13;5102324;27;20034;-75
2021/08/19 07:51:34;;;;;;;10.23;5.55;;;;;;;25.51;44.64;99365.88;5124357;27;20106;-75
2021/08/19 07:54:00;;;;;;;10.75;4.95;;;;;;;25.78;44.66;99409.53;5110222;28;20026;-75
2021/08/19 07:56:26;;;;;;;7.82;5.03;;;;;;;25.65;44.43;99377.69;5116273;27;20046;-76
2021/08/19 07:58:52;;;;;;;8.63;5.13;;;;;;;25.89;44.43;99412.97;5118624;27;20034;-75
2021/08/19 08:01:17;;;;;;;9.52;5.75;;;;;;;25.99;44.25;99402.06;5107617;28;20045;-76
2021/08/19 08:03:42;;;;;;;12.23;6.25;;;;;;;25.89;44.09;99373.22;5111340;28;20020;-76
2021/08/19 08:06:08;;;;;;;9.55;5.90;;;;;;;25.70;44.46;99344.44;5111565;28;20015;-75
2021/08/19 08:08:34;;;;;;;11.40;6.25;;;;;;;26.25;44.48;99402.69;5110411;28;20500;-76
2021/08/19 08:10:59;;;;;;;7.25;5.45;;;;;;;26.24;44.29;99393.78;5098892;28;20026;-72
2021/08/19 08:13:24;;;;;;;7.18;5.63;;;;;;;26.49;44.07;99400.06;5093407;28;20518;-76
2021/08/19 08:15:50;;;;;;;10.38;5.95;;;;;;;26.60;43.72;99383.44;5117691;27;20506;-75
2021/08/19 08:18:17;;;;;;;6.97;5.22;;;;;;;26.76;43.51;99400.34;5116444;27;20030;-76
2021/08/19 08:20:44;;;;;;;11.07;7.80;;;;;;;26.87;43.13;99391.00;5110421;28;20040;-72
2021/08/19 08:23:09;;;;;;;9.38;6.38;;;;;;;26.77;42.09;99368.66;5108614;27;20032;-73
2021/08/19 08:25:35;;;;;;;8.38;5.85;;;;;;;27.03;42.06;99394.38;5090848;28;20089;-74
2021/08/19 08:28:05;;;;;;;14.05;8.35;;;;;;;26.97;42.00;99360.28;5081068;28;20015;-73
2021/08/19 08:30:34;;;;;;;12.52;8.95;;;;;;;27.26;41.83;99375.66;5106013;28;20453;-74
2021/08/19 08:32:59;;;;;;;9.43;7.70;;;;;;;27.45;41.69;99387.31;5094166;27;20055;-75
2021/08/19 08:35:25;;;;;;;10.45;6.90;;;;;;;27.55;40.95;99392.63;5131751;27;20023;-74
2021/08/19 08:37:51;;;;;;;12.65;6.10;;;;;;;27.27;39.96;99333.88;5131777;27;20027;-74
2021/08/19 08:40:18;;;;;;;5.65;4.53;;;;;;;27.55;38.69;99381.78;5122738;27;20043;-73
2021/08/19 08:42:47;;;;;;;4.80;4.40;;;;;;;27.39;37.40;99345.09;5111331;28;20055;-73
2021/08/19 08:45:13;;;;;;;7.85;4.93;;;;;;;27.79;37.68;99382.53;5111245;28;20567;-75
2021/08/19 08:47:39;;;;;;;6.97;5.90;;;;;;;27.89;37.13;99376.13;5110878;28;20142;-75
2021/08/19 08:50:07;;;;;;;9.77;5.35;;;;;;;27.90;37.09;99355.22;5092740;28;20035;-75
2021/08/19 08:52:34;;;;;;;7.82;5.25;;;;;;;27.91;36.60;99335.13;5092775;28;20027;-75
2021/08/19 08:55:02;;;;;;;7.70;5.97;;;;;;;27.79;36.87;99301.13;5111047;28;20031;-75
2021/08/19 08:57:27;;;;;;;7.53;5.38;;;;;;;28.34;36.44;99384.66;5092713;28;20055;-75
2021/08/19 08:59:54;;;;;;;8.10;5.60;;;;;;;28.32;36.21;99373.28;5111291;28;20063;-76
2021/08/19 09:02:19;;;;;;;5.93;5.32;;;;;;;28.45;35.73;99378.75;5110813;28;20502;-75
2021/08/19 09:04:46;;;;;;;6.88;5.47;;;;;;;28.54;35.30;99376.13;5092785;28;20094;-72
2021/08/19 09:07:11;;;;;;;6.38;4.80;;;;;;;28.65;35.25;99387.59;5110876;28;20616;-75
2021/08/19 09:09:37;;;;;;;6.53;5.80;;;;;;;28.51;35.44;99337.91;5110724;28;20035;-75
2021/08/19 09:12:02;;;;;;;7.03;5.22;;;;;;;28.94;35.48;99373.75;5109463;28;20069;-75
2021/08/19 09:14:35;;;;;;;8.52;5.60;;;;;;;28.89;36.25;99377.38;5109482;28;20047;-75
2021/08/19 09:17:01;;;;;;;8.52;6.55;;;;;;;28.92;35.88;99367.81;5110532;28;20020;-75
2021/08/19 09:19:32;;;;;;;8.45;6.43;;;;;;;29.29;36.28;99373.03;5111038;28;20031;-73
2021/08/19 09:22:00;;;;;;;10.25;8.10;;;;;;;29.45;35.48;99349.03;5111362;28;20024;-72
2021/08/19 09:24:28;;;;;;;8.45;6.35;;;;;;;29.91;35.52;99369.75;5111441;28;20024;-76
2021/08/19 09:27:07;;;;;;;9.65;5.55;;;;;;;29.67;34.82;99310.94;5108788;28;20039;-74
2021/08/19 09:29:33;;;;;;;7.50;5.53;;;;;;;30.16;34.46;99360.97;5072759;28;20031;-75
2021/08/19 09:32:09;;;;;;;7.28;4.97;;;;;;;30.40;31.80;99379.66;5090766;28;20485;-75
2021/08/19 09:34:36;;;;;;;10.00;4.65;;;;;;;30.45;32.67;99368.63;5090733;28;20449;-74
2021/08/19 09:37:04;;;;;;;5.47;4.85;;;;;;;30.58;32.11;99372.41;5090756;28;20416;-75
2021/08/19 09:39:54;;;;;;;5.93;5.30;;;;;;;30.55;31.82;99334.88;5103979;28;20034;-75
2021/08/19 09:42:19;;;;;;;6.35;4.53;;;;;;;31.00;31.54;99362.78;5109176;28;20070;-75
2021/08/19 09:44:47;;;;;;;6.78;5.88;;;;;;;31.07;30.81;99360.41;5111053;28;20111;-74
2021/08/19 09:47:33;;;;;;;8.27;5.32;;;;;;;31.13;30.62;99361.84;5088539;28;20433;-75
2021/08/19 09:50:16;;;;;;;10.15;7.50;;;;;;;30.99;30.15;99315.63;5093128;28;20553;-74
2021/08/19 09:52:46;;;;;;;5.57;4.15;;;;;;;31.33;30.23;99367.88;5114261;28;20385;-75
2021/08/19 09:55:32;;;;;;;7.28;5.22;;;;;;;31.40;30.47;99354.56;5095784;28;20102;-75
2021/08/19 09:57:59;;;;;;;6.07;5.47;;;;;;;31.18;30.14;99304.44;5094052;28;20020;-74
2021/08/19 10:00:29;;;;;;;7.07;4.30;;;;;;;31.75;29.15;99350.72;5092752;28;20020;-73
2021/08/19 10:02:56;;;;;;;8.73;5.10;;;;;;;31.83;29.04;99352.63;5089379;28;20085;-74
2021/08/19 10:05:21;;;;;;;10.15;4.95;;;;;;;31.82;29.57;99340.13;5087257;28;20058;-74
2021/08/19 10:07:47;;;;;;;7.78;4.72;;;;;;;32.03;28.68;99344.91;5091662;28;20420;-74
2021/08/19 10:10:12;;;;;;;5.65;4.88;;;;;;;31.63;28.36;99301.41;5090461;28;20440;-74
2021/08/19 10:12:42;;;;;;;7.40;4.22;;;;;;;31.92;28.43;99331.56;5103461;28;20016;-75
2021/08/19 10:15:08;;;;;;;8.52;6.78;;;;;;;31.79;28.48;99301.72;5092063;28;20512;-74
2021/08/19 10:17:36;;;;;;;7.03;5.32;;;;;;;32.04;28.60;99289.16;5100363;28;20032;-74
2021/08/19 10:20:10;;;;;;;9.00;6.95;;;;;;;32.10;29.19;99285.13;5092684;28;20043;-75
2021/08/19 10:22:37;;;;;;;8.80;7.13;;;;;;;32.01;29.36;99331.59;5091314;28;20564;-76
2021/08/19 10:25:06;;;;;;;8.05;6.22;;;;;;;31.57;30.16;99328.06;5090205;28;20027;-78
2021/08/19 10:27:33;;;;;;;8.77;6.00;;;;;;;31.16;30.96;99327.72;5090683;28;21023;-79
2021/08/19 10:30:02;;;;;;;7.85;6.10;;;;;;;31.04;31.21;99327.50;5112518;28;20023;-78
2021/08/19 10:32:36;;;;;;;11.40;8.52;;;;;;;30.97;31.26;99295.25;5092230;28;20056;-79
2021/08/19 10:35:05;;;;;;;9.07;8.18;;;;;;;31.44;30.98;99320.03;5090043;28;20028;-79
2021/08/19 10:37:48;;;;;;;10.35;6.57;;;;;;;31.82;30.61;99325.66;5090487;28;20129;-78
2021/08/19 10:40:28;;;;;;;6.38;5.55;;;;;;;32.20;29.79;99321.09;5086096;28;20648;-78
2021/08/19 10:43:19;;;;;;;9.85;7.95;;;;;;;32.57;29.69;99315.19;5089316;28;20024;-78
2021/08/19 10:45:44;;;;;;;8.07;6.22;;;;;;;32.87;28.95;99316.03;5088449;28;20036;-78
2021/08/19 10:48:10;;;;;;;10.98;7.55;;;;;;;33.22;28.30;99313.84;5090580;28;20034;-78
2021/08/19 10:50:43;;;;;;;8.73;7.60;;;;;;;33.20;27.82;99308.72;5090483;28;20028;-78
2021/08/19 10:53:15;;;;;;;6.80;6.05;;;;;;;33.50;27.75;99322.38;5091098;28;20028;-79
2021/08/19 10:55:40;;;;;;;8.13;5.10;;;;;;;33.62;27.46;99316.94;5090694;28;20107;-79
2021/08/19 10:58:27;;;;;;;8.18;5.25;;;;;;;33.71;27.08;99317.66;5090330;28;20556;-79
2021/08/19 11:01:15;;;;;;;8.40;7.03;;;;;;;33.65;27.30;99321.75;5091467;28;20514;-78
2021/08/19 11:03:43;;;;;;;7.68;5.00;;;;;;;33.58;27.50;99316.03;5088601;28;20075;-76
2021/08/19 11:06:17;;;;;;;5.82;4.57;;;;;;;33.73;26.39;99316.19;5091193;28;20031;-79
2021/08/19 11:08:45;;;;;;;6.65;5.15;;;;;;;34.04;26.36;99309.44;5106849;27;20035;-79
2021/08/19 11:11:26;;;;;;;10.57;5.30;;;;;;;34.35;26.42;99306.25;5088104;28;20032;-78
2021/08/19 11:14:03;;;;;;;7.82;5.85;;;;;;;34.57;25.23;99307.72;5090373;28;20111;-79
2021/08/19 11:16:28;;;;;;;7.00;5.95;;;;;;;34.35;25.24;99279.63;5090392;28;20060;-77
2021/08/19 11:18:54;;;;;;;6.75;5.13;;;;;;;34.45;25.82;99250.16;5091163;28;20115;-80
2021/08/19 11:21:19;;;;;;;11.32;8.43;;;;;;;34.60;25.17;99260.44;5093772;28;20035;-79
2021/08/19 11:23:46;;;;;;;6.53;5.60;;;;;;;34.79;24.40;99282.56;5092195;28;20103;-79
2021/08/19 11:26:16;;;;;;;7.38;6.65;;;;;;;34.73;24.90;99281.22;5091722;28;20050;-80
2021/08/19 11:28:48;;;;;;;8.50;7.03;;;;;;;34.78;24.61;99288.41;5092935;28;20054;-79
2021/08/19 11:31:22;;;;;;;8.88;7.97;;;;;;;34.63;24.68;99251.50;5092375;28;20023;-79